D/T METAR WX W/DIR W/SPE G/SPE TEMP DEWP
8/12/19 00:50 EGOP 080050Z AUTO 22033KT 1700 // OVC004/// 11/11 Q0999 SW (220°) 38.0mph 11°C 11°C
7/12/19 23:50 EGOP 072350Z AUTO 21036KT 1500 // BKN005/// BKN013/// 11/11 Q1000 SSW (210°) 41.4mph 11°C 11°C
7/12/19 22:50 EGOP 072250Z AUTO 20035KT 1600 // BKN006/// BKN013/// 11/10 Q1002 SSW (200°) 40.3mph 11°C 10°C
7/12/19 21:50 EGOP 072150Z AUTO 20034KT 2000 // BKN009/// 10/10 Q1003 SSW (200°) 39.1mph 10°C 10°C
7/12/19 20:50 EGOP 072050Z AUTO 20030KT 8000 // BKN012/// BKN070/// 11/09 Q1005 SSW (200°) 34.5mph 11°C 9°C
7/12/19 19:50 EGOP 071950Z AUTO 20026KT 7000 // BKN011/// 11/09 Q1007 SSW (200°) 29.9mph 11°C 9°C
7/12/19 18:50 EGOP 071850Z AUTO 21028KT 9999 // BKN011/// 10/09 Q1009 SSW (210°) 32.2mph 10°C 9°C
7/12/19 17:50 EGOP 071750Z AUTO 22022KT 3800 // BKN008/// 10/09 Q1010 SW (220°) 25.3mph 10°C 9°C
7/12/19 16:50 EGOP 071650Z AUTO 21020KT 9000 // SCT004/// BKN015/// 10/09 Q1011 SSW (210°) 23.0mph 10°C 9°C
7/12/19 15:50 EGOP 071550Z AUTO 22021KT 8000 // BKN006/// BKN022/// 10/09 Q1012 SW (220°) 24.2mph 10°C 9°C
7/12/19 14:50 EGOP 071450Z AUTO 22020KT 9999 // BKN011/// 10/09 Q1012 SW (220°) 23.0mph 10°C 9°C
7/12/19 13:50 EGOP 071350Z AUTO 23020KT 9000 // BKN009/// 10/09 Q1012 SW (230°) 23.0mph 10°C 9°C
7/12/19 12:50 EGOP 071250Z AUTO 23018KT 9999 // FEW011/// BKN016/// 10/09 Q1013 SW (230°) 20.7mph 10°C 9°C
7/12/19 11:50 EGOP 071150Z AUTO 22013KT 9999 // BKN014/// BKN049/// 10/09 Q1013 SW (220°) 15.0mph 10°C 9°C
7/12/19 10:50 EGOP 071050Z AUTO 25013KT 9999 // BKN012/// 09/09 Q1014 WSW (250°) 15.0mph 9°C 9°C
7/12/19 09:50 EGOP 070950Z AUTO 24013KT 9999 // BKN027/// 10/08 Q1014 WSW (240°) 15.0mph 10°C 8°C
7/12/19 08:50 EGOP 070850Z AUTO 20007KT 8000 // SCT033/// 09/08 Q1014 SSW (200°) 8.1mph 9°C 8°C
7/12/19 07:50 EGOP 070750Z AUTO 20004KT 9999 // FEW024/// OVC038/// 07/06 Q1014 SSW (200°) 4.6mph 7°C 6°C
7/12/19 06:50 EGOP 070650Z AUTO 29005KT 9999 // BKN033/// SCT038/// 08/07 Q1014 WNW (290°) 5.8mph 8°C 7°C
7/12/19 05:50 EGOP 070550Z AUTO 26010KT 9999 // SCT035/// 09/07 Q1013 W (260°) 11.5mph 9°C 7°C
7/12/19 04:50 EGOP 070450Z AUTO 27010KT 6000 // OVC035/// 10/08 Q1013 W (270°) 11.5mph 10°C 8°C
7/12/19 03:50 EGOP 070350Z AUTO 27010KT 6000 // BKN037/// 10/08 Q1013 W (270°) 11.5mph 10°C 8°C
7/12/19 02:50 EGOP 070250Z AUTO 27010KT 6000 // BKN033/// 10/08 Q1012 W (270°) 11.5mph 10°C 8°C
7/12/19 01:50 EGOP 070150Z AUTO 28007KT 4200 // BKN032/// 09/07 Q1012 W (280°) 8.1mph 9°C 7°C
7/12/19 00:50 EGOP 070050Z AUTO 26010KT 9999 // BKN032/// 10/07 Q1012 W (260°) 11.5mph 10°C 7°C
6/12/19 23:50 EGOP 062350Z AUTO 28012KT 7000 // BKN033/// SCT039/// 09/07 Q1011 W (280°) 13.8mph 9°C 7°C
6/12/19 22:50 EGOP 062250Z AUTO 27010KT 6000 // BKN029/// 09/07 Q1011 W (270°) 11.5mph 9°C 7°C
6/12/19 21:50 EGOP 062150Z AUTO 27013KT 9999 // BKN031/// 09/07 Q1010 W (270°) 15.0mph 9°C 7°C
6/12/19 20:50 EGOP 062050Z AUTO 28013KT 9999 // FEW033/// 09/06 Q1009 W (280°) 15.0mph 9°C 6°C
6/12/19 19:50 EGOP 061950Z AUTO 28016KT 9999 // NCD 09/06 Q1008 W (280°) 18.4mph 9°C 6°C
6/12/19 18:50 EGOP 061850Z AUTO 28018KT 9999 // SCT034/// 09/07 Q1008 W (280°) 20.7mph 9°C 7°C
6/12/19 17:50 EGOP 061750Z AUTO 28016KT 9999 // NCD 10/07 Q1007 W (280°) 18.4mph 10°C 7°C
6/12/19 16:50 EGOP 061650Z AUTO 27018KT 9000 // FEW032/// BKN040/// 10/07 Q1006 W (270°) 20.7mph 10°C 7°C
6/12/19 15:50 EGOP 061550Z AUTO 28020KT 9999 // BKN031/// 11/08 Q1005 W (280°) 23.0mph 11°C 8°C
6/12/19 14:50 EGOP 061450Z AUTO 27023KT 9000 // SCT025/// 11/08 Q1004 W (270°) 26.5mph 11°C 8°C
6/12/19 13:50 EGOP 061350Z AUTO 27025KT 7000 // FEW019/// SCT070/// 11/09 Q1003 W (270°) 28.8mph 11°C 9°C
6/12/19 12:50 EGOP 061250Z AUTO 26028KT 6000 // BKN017/// SCT037/// 11/10 Q1003 W (260°) 32.2mph 11°C 10°C
6/12/19 11:50 EGOP 061150Z AUTO 23028G38KT 3500 // FEW008/// BKN010/// 11/10 Q1003 SW (230°) 32.2mph 43.7mph 11°C 10°C
6/12/19 10:50 EGOP 061050Z 24021KT 5000 SHRA BKN011 SCT021 11/10 Q1004 GRN SHRA WSW (240°) 24.2mph 11°C 10°C
6/12/19 09:50 EGOP 060950Z 24022KT 9999 SCT015 SCT030 11/10 Q1005 WHT WSW (240°) 25.3mph 11°C 10°C
6/12/19 08:50 EGOP 060850Z 24029KT 9999 BKN012 BKN030 11/10 Q1004 GRN WSW (240°) 33.4mph 11°C 10°C
6/12/19 07:50 EGOP 060750Z AUTO 24022KT 2500 // FEW003/// BKN005/// BKN011/// 11/11 Q1004 WSW (240°) 25.3mph 11°C 11°C
6/12/19 06:50 EGOP 060650Z AUTO 24025KT 0800 // OVC003/// 11/11 Q1005 WSW (240°) 28.8mph 11°C 11°C
6/12/19 05:50 EGOP 060550Z AUTO 24025KT 1200 // OVC003/// 11/11 Q1005 WSW (240°) 28.8mph 11°C 11°C
6/12/19 04:50 EGOP 060450Z AUTO 23025KT 1700 // OVC004/// 11/11 Q1005 SW (230°) 28.8mph 11°C 11°C
6/12/19 03:50 EGOP 060350Z AUTO 23027KT 1600 // BKN004/// 11/11 Q1006 SW (230°) 31.1mph 11°C 11°C
6/12/19 02:50 EGOP 060250Z AUTO 23024KT 0900 // BKN003/// 11/11 Q1007 SW (230°) 27.6mph 11°C 11°C
6/12/19 01:50 EGOP 060150Z AUTO 24023KT 1100 // BKN003/// 11/11 Q1008 WSW (240°) 26.5mph 11°C 11°C